createdAt,value
2019-03-21T00:00:49.509Z,19.97
2019-03-21T00:03:19.283Z,22.53
2019-03-21T00:05:48.708Z,16.37
2019-03-21T00:08:18.076Z,21.20
2019-03-21T00:11:20.894Z,17.23
2019-03-21T00:13:51.623Z,25.90
2019-03-21T00:16:21.262Z,16.83
2019-03-21T00:18:50.698Z,18.48
2019-03-21T00:21:20.034Z,19.17
2019-03-21T00:23:49.516Z,32.50
2019-03-21T00:26:19.134Z,18.40
2019-03-21T00:28:48.530Z,19.53
2019-03-21T00:31:17.999Z,28.07
2019-03-21T00:33:48.020Z,17.73
2019-03-21T00:36:17.388Z,22.13
2019-03-21T00:38:46.856Z,20.80
2019-03-21T00:41:16.283Z,22.73
2019-03-21T00:43:45.732Z,14.50
2019-03-21T00:46:15.185Z,19.20
2019-03-21T00:48:44.587Z,15.20
2019-03-21T00:51:13.941Z,15.67
2019-03-21T00:53:43.420Z,12.30
2019-03-21T00:56:12.875Z,18.20
2019-03-21T00:58:42.330Z,20.90
2019-03-21T01:01:12.176Z,11.20
2019-03-21T01:03:41.907Z,14.17
2019-03-21T01:06:11.384Z,15.70
2019-03-21T01:08:40.775Z,14.47
2019-03-21T01:11:10.227Z,17.23
2019-03-21T01:13:39.601Z,16.17
2019-03-21T01:16:09.067Z,15.73
2019-03-21T01:18:39.196Z,21.73
2019-03-21T01:21:08.804Z,14.10
2019-03-21T01:23:38.188Z,15.03
2019-03-21T01:26:07.670Z,13.60
2019-03-21T01:28:37.115Z,13.23
2019-03-21T01:31:06.729Z,17.23
2019-03-21T01:33:36.099Z,17.17
2019-03-21T01:36:06.031Z,11.63
2019-03-21T01:38:35.404Z,13.10
2019-03-21T01:41:04.912Z,13.63
2019-03-21T01:43:34.281Z,15.20
2019-03-21T01:46:05.622Z,17.13
2019-03-21T01:48:35.111Z,15.43
2019-03-21T01:51:04.926Z,41.37
2019-03-21T01:53:34.504Z,16.80
2019-03-21T01:56:03.919Z,15.00
2019-03-21T01:58:33.328Z,14.07
2019-03-21T02:01:02.819Z,11.00
2019-03-21T02:03:32.187Z,20.80
2019-03-21T02:06:01.621Z,14.97
2019-03-21T02:08:31.011Z,13.80
2019-03-21T02:11:00.834Z,15.13
2019-03-21T02:13:30.598Z,14.97
2019-03-21T02:16:00.084Z,18.93
2019-03-21T02:18:29.491Z,18.77
2019-03-21T02:20:59.277Z,19.80
2019-03-21T02:23:28.783Z,30.40
2019-03-21T02:25:58.182Z,17.10
2019-03-21T02:28:27.690Z,16.87
2019-03-21T02:30:57.699Z,16.63
2019-03-21T02:33:29.685Z,14.73
2019-03-21T02:35:59.142Z,16.03
2019-03-21T02:38:28.602Z,15.50
2019-03-21T02:40:59.503Z,18.77
2019-03-21T02:43:28.895Z,24.40
2019-03-21T02:45:58.410Z,14.37
2019-03-21T02:48:27.844Z,18.73
2019-03-21T02:50:57.213Z,14.93
2019-03-21T02:53:26.630Z,19.57
2019-03-21T02:55:56.058Z,16.67
2019-03-21T02:58:25.501Z,16.57
2019-03-21T03:00:54.925Z,10.53
2019-03-21T03:03:24.402Z,13.63
2019-03-21T03:05:54.660Z,13.33
2019-03-21T03:08:24.165Z,22.40
2019-03-21T03:10:54.599Z,23.97
2019-03-21T03:13:24.148Z,13.27
2019-03-21T03:15:53.611Z,14.20
2019-03-21T03:18:23.153Z,16.90
2019-03-21T03:20:52.664Z,14.10
2019-03-21T03:23:22.556Z,12.70
2019-03-21T03:25:51.944Z,13.03
2019-03-21T03:28:23.346Z,13.30
2019-03-21T03:30:53.708Z,13.07
2019-03-21T03:33:23.173Z,13.00
2019-03-21T03:35:52.637Z,13.70
2019-03-21T03:38:22.016Z,13.90
2019-03-21T03:40:54.476Z,11.83
2019-03-21T03:43:24.004Z,18.13
2019-03-21T03:45:53.405Z,21.97
2019-03-21T03:48:22.844Z,26.27
2019-03-21T03:50:52.411Z,16.13
2019-03-21T03:53:21.775Z,17.33
2019-03-21T03:55:51.481Z,24.00
2019-03-21T03:58:21.655Z,14.50
2019-03-21T04:00:51.102Z,16.37
2019-03-21T04:03:20.618Z,14.70
2019-03-21T04:05:50.499Z,16.90
2019-03-21T04:08:19.958Z,16.10
2019-03-21T04:10:49.521Z,13.60
2019-03-21T04:13:19.313Z,13.37
2019-03-21T04:15:53.305Z,14.20
2019-03-21T04:18:20.306Z,24.90
2019-03-21T04:20:50.124Z,20.83
2019-03-21T04:23:19.999Z,31.10
2019-03-21T04:25:58.319Z,16.00
2019-03-21T04:28:27.916Z,14.73
2019-03-21T04:30:57.397Z,17.63
2019-03-21T04:33:26.859Z,19.40
2019-03-21T04:35:56.409Z,18.10
2019-03-21T04:38:25.796Z,19.20
2019-03-21T04:40:55.484Z,21.40
2019-03-21T04:43:25.454Z,18.63
2019-03-21T04:46:03.385Z,14.17
2019-03-21T04:48:26.255Z,20.37
2019-03-21T04:50:55.765Z,15.27
2019-03-21T04:53:25.110Z,15.70
2019-03-21T04:55:54.586Z,16.00
2019-03-21T04:58:23.994Z,19.73
2019-03-21T05:00:53.722Z,30.33
2019-03-21T05:03:23.433Z,19.33
2019-03-21T05:05:53.366Z,18.13
2019-03-21T05:08:22.769Z,19.50
2019-03-21T05:10:52.250Z,18.03
2019-03-21T05:13:21.663Z,21.87
2019-03-21T05:15:51.207Z,19.17
2019-03-21T05:18:24.738Z,18.23
2019-03-21T05:20:54.128Z,14.60
2019-03-21T05:23:23.495Z,26.43
2019-03-21T05:25:52.949Z,21.07
2019-03-21T05:28:22.531Z,24.23
2019-03-21T05:30:55.337Z,16.20
2019-03-21T05:33:24.783Z,20.73
2019-03-21T05:35:54.348Z,17.60
2019-03-21T05:38:24.298Z,16.83
2019-03-21T05:40:53.730Z,15.73
2019-03-21T05:43:26.478Z,19.50
2019-03-21T05:45:55.914Z,17.97
2019-03-21T05:48:25.644Z,26.67
2019-03-21T05:50:55.181Z,18.97
2019-03-21T05:53:24.523Z,24.87
2019-03-21T05:55:54.359Z,17.83
2019-03-21T05:58:23.788Z,14.83
2019-03-21T06:00:53.162Z,16.93
2019-03-21T06:03:25.977Z,33.87
2019-03-21T06:06:02.140Z,15.83
2019-03-21T06:08:34.116Z,14.80
2019-03-21T06:11:03.808Z,35.63
2019-03-21T06:13:36.590Z,16.53
2019-03-21T06:16:10.259Z,20.17
2019-03-21T06:19:16.575Z,15.43
2019-03-21T06:22:14.824Z,15.77
2019-03-21T06:25:26.922Z,24.77
2019-03-21T06:27:56.438Z,15.90
2019-03-21T06:30:25.942Z,16.07
2019-03-21T06:32:55.753Z,19.40
2019-03-21T06:35:25.596Z,37.53
2019-03-21T06:37:55.055Z,22.63
2019-03-21T06:40:24.715Z,25.83
2019-03-21T06:42:54.092Z,24.93
2019-03-21T06:45:23.563Z,25.67
2019-03-21T06:47:53.518Z,26.63
2019-03-21T06:50:22.955Z,19.60
2019-03-21T06:52:52.478Z,17.30
2019-03-21T06:55:22.157Z,18.80
2019-03-21T06:57:51.844Z,19.60
2019-03-21T07:00:21.383Z,23.70
2019-03-21T07:02:50.934Z,17.00
2019-03-21T07:05:20.523Z,13.30
2019-03-21T07:07:49.908Z,15.83
2019-03-21T07:10:19.341Z,24.13
2019-03-21T07:12:48.799Z,15.17
2019-03-21T07:15:18.429Z,20.97
2019-03-21T07:17:47.847Z,29.63
2019-03-21T07:20:17.355Z,17.53
2019-03-21T07:22:46.823Z,14.00
2019-03-21T07:25:16.462Z,24.93
2019-03-21T07:27:46.323Z,20.30
2019-03-21T07:30:17.441Z,13.60
2019-03-21T07:32:47.156Z,19.07
2019-03-21T07:35:16.681Z,36.10
2019-03-21T07:37:46.206Z,22.57
2019-03-21T07:40:15.696Z,16.73
2019-03-21T07:42:45.528Z,19.63
2019-03-21T07:45:15.684Z,16.17
2019-03-21T07:47:45.423Z,28.60
2019-03-21T07:50:15.052Z,17.70
2019-03-21T07:52:44.568Z,24.70
2019-03-21T07:55:14.052Z,15.10
2019-03-21T07:57:43.463Z,25.63
2019-03-21T08:00:14.317Z,29.33
2019-03-21T08:02:43.875Z,23.93
2019-03-21T08:05:13.631Z,18.80
2019-03-21T08:07:43.130Z,27.83
2019-03-21T08:10:12.954Z,18.30
2019-03-21T08:12:42.394Z,26.20
2019-03-21T08:15:12.685Z,19.93
2019-03-21T08:17:42.165Z,19.87
2019-03-21T08:20:12.175Z,19.00
2019-03-21T08:22:42.199Z,20.47
2019-03-21T08:25:12.132Z,27.90
2019-03-21T08:27:41.695Z,22.40
2019-03-21T08:30:26.563Z,24.63
2019-03-21T08:32:55.968Z,19.33
2019-03-21T08:35:25.343Z,21.93
2019-03-21T08:37:54.798Z,25.07
2019-03-21T08:40:24.528Z,26.93
2019-03-21T08:42:53.898Z,14.00
2019-03-21T08:45:23.778Z,13.60
2019-03-21T08:47:53.192Z,26.03
2019-03-21T08:50:22.825Z,23.83
2019-03-21T08:52:52.630Z,22.37
2019-03-21T08:55:22.255Z,33.13
2019-03-21T08:57:51.835Z,24.03
2019-03-21T09:00:21.295Z,24.67
2019-03-21T09:02:51.142Z,23.73
2019-03-21T09:05:20.691Z,24.50
2019-03-21T09:08:11.644Z,25.93
2019-03-21T09:10:41.233Z,17.43
2019-03-21T09:13:10.673Z,22.33
2019-03-21T09:15:40.277Z,18.80
2019-03-21T09:18:10.196Z,16.10
2019-03-21T09:20:39.683Z,15.80
2019-03-21T09:23:09.103Z,21.77
2019-03-21T09:25:57.780Z,19.50
2019-03-21T09:28:27.484Z,18.63
2019-03-21T09:30:56.888Z,19.93
2019-03-21T09:33:26.706Z,18.90
2019-03-21T09:35:56.249Z,15.67
2019-03-21T09:38:25.873Z,16.30
2019-03-21T09:40:55.367Z,24.80
2019-03-21T09:43:24.919Z,19.00
2019-03-21T09:45:54.631Z,19.73
2019-03-21T09:48:24.260Z,20.23
2019-03-21T09:50:53.783Z,17.67
2019-03-21T09:53:23.295Z,23.50
2019-03-21T09:55:52.796Z,13.30
2019-03-21T09:58:22.564Z,19.73
2019-03-21T10:00:52.115Z,18.67
2019-03-21T10:03:21.484Z,34.63
2019-03-21T10:05:50.945Z,19.10
2019-03-21T10:08:20.352Z,12.47
2019-03-21T10:10:49.759Z,23.43
2019-03-21T10:13:19.186Z,17.57
2019-03-21T10:15:48.922Z,23.00
2019-03-21T10:18:18.393Z,16.60
2019-03-21T10:20:48.220Z,18.80
2019-03-21T10:23:17.630Z,20.67
2019-03-21T10:25:47.061Z,24.87
2019-03-21T10:28:16.792Z,19.13
2019-03-21T10:30:46.231Z,16.63
2019-03-21T10:33:15.864Z,22.93
2019-03-21T10:35:45.411Z,18.33
2019-03-21T10:38:15.065Z,19.37
2019-03-21T10:40:44.695Z,13.93
2019-03-21T10:43:14.067Z,13.60
2019-03-21T10:45:43.507Z,27.20
2019-03-21T10:48:13.057Z,17.97
2019-03-21T10:50:42.585Z,18.13
2019-03-21T10:53:12.984Z,18.93
2019-03-21T10:55:42.477Z,15.03
2019-03-21T10:58:12.635Z,10.77
2019-03-21T11:00:41.978Z,19.73
2019-03-21T11:03:11.446Z,17.30
2019-03-21T11:05:41.511Z,16.37
2019-03-21T11:08:11.071Z,25.70
2019-03-21T11:10:40.686Z,14.77
2019-03-21T11:13:10.224Z,16.17
2019-03-21T11:15:39.758Z,21.50
2019-03-21T11:18:09.321Z,14.47
2019-03-21T11:20:40.093Z,15.33
2019-03-21T11:23:10.171Z,17.50
2019-03-21T11:25:40.969Z,23.73
2019-03-21T11:28:10.803Z,17.50
2019-03-21T11:30:44.735Z,26.57
2019-03-21T11:33:16.228Z,18.00
2019-03-21T11:35:48.283Z,15.67
2019-03-21T11:38:17.680Z,18.10
2019-03-21T11:40:48.561Z,23.67
2019-03-21T11:43:19.794Z,18.57
2019-03-21T11:45:49.273Z,10.17
2019-03-21T11:48:19.312Z,20.13
2019-03-21T11:50:48.842Z,18.97
2019-03-21T11:53:18.535Z,15.70
2019-03-21T11:55:48.194Z,22.20
2019-03-21T11:58:17.985Z,22.07
2019-03-21T12:00:47.357Z,16.83
2019-03-21T12:03:16.844Z,24.73
2019-03-21T12:05:46.272Z,16.30
2019-03-21T12:08:15.706Z,18.73
2019-03-21T12:10:45.272Z,20.17
2019-03-21T12:13:14.982Z,24.67
2019-03-21T12:15:44.530Z,25.50
2019-03-21T12:18:13.928Z,17.60
2019-03-21T12:20:43.451Z,23.57
2019-03-21T12:23:12.834Z,11.73
2019-03-21T12:25:42.291Z,22.70
2019-03-21T12:28:11.759Z,9.40
2019-03-21T12:30:42.452Z,16.50
2019-03-21T12:33:12.167Z,21.90
2019-03-21T12:35:44.566Z,12.17
2019-03-21T12:38:14.060Z,10.40
2019-03-21T12:40:43.524Z,18.37
2019-03-21T12:43:12.963Z,13.33
2019-03-21T12:45:42.515Z,14.20
2019-03-21T12:48:12.007Z,21.60
2019-03-21T12:50:41.812Z,13.10
2019-03-21T12:53:12.093Z,19.30
2019-03-21T12:55:41.559Z,17.60
2019-03-21T12:58:11.076Z,18.50
2019-03-21T13:00:45.960Z,14.30
2019-03-21T13:03:15.773Z,13.17
2019-03-21T13:05:45.670Z,17.53
2019-03-21T13:08:15.097Z,20.33
2019-03-21T13:10:44.619Z,18.87
2019-03-21T13:13:14.139Z,14.27
2019-03-21T13:15:43.876Z,12.63
2019-03-21T13:18:13.434Z,12.30
2019-03-21T13:20:42.955Z,14.87
2019-03-21T13:23:12.567Z,22.43
2019-03-21T13:25:42.312Z,26.97
2019-03-21T13:28:11.837Z,12.80
2019-03-21T13:30:41.662Z,13.40
2019-03-21T13:33:11.188Z,18.35
2019-03-21T13:35:40.980Z,24.57
2019-03-21T13:38:10.672Z,12.70
2019-03-21T13:40:40.118Z,10.10
2019-03-21T13:43:11.316Z,18.37
2019-03-21T13:45:40.935Z,10.03
2019-03-21T13:48:10.411Z,17.97
2019-03-21T13:50:39.887Z,16.63
2019-03-21T13:53:18.510Z,10.87
2019-03-21T13:55:41.604Z,13.33
2019-03-21T13:58:11.226Z,14.63
2019-03-21T14:00:41.211Z,12.33
2019-03-21T14:03:10.873Z,17.20
2019-03-21T14:05:40.319Z,24.77
2019-03-21T14:08:09.737Z,16.63
2019-03-21T14:10:39.180Z,15.33
2019-03-21T14:13:09.152Z,11.77
2019-03-21T14:15:38.522Z,14.53
2019-03-21T14:18:08.383Z,14.53
2019-03-21T14:20:37.860Z,14.87
2019-03-21T14:23:16.557Z,16.53
2019-03-21T14:25:38.477Z,15.73
2019-03-21T14:28:07.817Z,17.93
2019-03-21T14:30:37.363Z,12.77
2019-03-21T14:33:08.310Z,15.60
2019-03-21T14:35:38.047Z,14.73
2019-03-21T14:38:07.535Z,19.00
2019-03-21T14:40:37.141Z,14.03
2019-03-21T14:43:06.848Z,11.80
2019-03-21T14:45:36.225Z,13.83
2019-03-21T14:48:05.855Z,14.07
2019-03-21T14:50:35.327Z,20.17
2019-03-21T14:53:04.766Z,15.60
2019-03-21T14:55:34.214Z,14.17
2019-03-21T14:58:03.759Z,13.40
2019-03-21T15:00:33.387Z,13.17
2019-03-21T15:03:03.304Z,9.17
2019-03-21T15:05:32.835Z,16.37
2019-03-21T15:08:02.333Z,17.87
2019-03-21T15:10:32.375Z,15.43
2019-03-21T15:13:01.879Z,16.40
2019-03-21T15:15:32.333Z,12.57
2019-03-21T15:18:01.928Z,7.83
2019-03-21T15:20:31.299Z,13.07
2019-03-21T15:23:00.739Z,10.87
2019-03-21T15:25:31.240Z,15.70
2019-03-21T15:28:00.654Z,12.70
2019-03-21T15:30:30.024Z,24.30
2019-03-21T15:32:59.388Z,10.13
2019-03-21T15:35:28.959Z,7.23
2019-03-21T15:37:59.976Z,13.83
2019-03-21T15:40:30.831Z,10.53
2019-03-21T15:43:00.285Z,14.23
2019-03-21T15:45:29.597Z,13.43
2019-03-21T15:47:59.043Z,13.13
2019-03-21T15:50:30.400Z,8.40
2019-03-21T15:52:59.908Z,10.25
2019-03-21T15:55:29.302Z,7.70
2019-03-21T15:57:58.795Z,8.90
2019-03-21T16:00:39.062Z,6.90
2019-03-21T16:03:08.925Z,11.60
2019-03-21T16:05:39.150Z,13.23
2019-03-21T16:08:09.403Z,15.90
2019-03-21T16:10:39.321Z,17.73
2019-03-21T16:13:08.795Z,15.10
2019-03-21T16:15:38.221Z,6.97
2019-03-21T16:18:07.711Z,10.27
2019-03-21T16:20:37.294Z,9.80
2019-03-21T16:23:07.204Z,8.57
2019-03-21T16:25:37.400Z,10.50
2019-03-21T16:28:06.813Z,23.63
2019-03-21T16:30:36.574Z,20.43
2019-03-21T16:33:06.223Z,14.80
2019-03-21T16:35:35.635Z,27.47
2019-03-21T16:38:05.217Z,17.40
2019-03-21T16:40:34.655Z,22.27
2019-03-21T16:43:05.565Z,18.10
2019-03-21T16:45:35.266Z,14.43
2019-03-21T16:48:05.061Z,15.00
2019-03-21T16:50:34.577Z,18.07
2019-03-21T16:53:05.223Z,16.97
2019-03-21T16:55:34.840Z,18.47
2019-03-21T16:58:04.247Z,21.50
2019-03-21T17:00:33.702Z,15.80
2019-03-21T17:03:03.398Z,19.13
2019-03-21T17:05:32.903Z,18.27
2019-03-21T17:08:11.248Z,19.70
2019-03-21T17:10:33.844Z,28.13
2019-03-21T17:13:04.656Z,21.23
2019-03-21T17:15:34.659Z,16.73
2019-03-21T17:18:04.470Z,18.40
2019-03-21T17:20:33.917Z,16.70
2019-03-21T17:23:03.881Z,16.10
2019-03-21T17:25:34.261Z,26.70
2019-03-21T17:28:04.255Z,29.77
2019-03-21T17:30:34.020Z,21.30
2019-03-21T17:33:03.827Z,18.03
2019-03-21T17:35:33.422Z,26.17
2019-03-21T17:38:02.984Z,18.37
2019-03-21T17:40:35.171Z,26.97
2019-03-21T17:43:04.891Z,29.33
2019-03-21T17:45:34.421Z,30.00
2019-03-21T17:48:04.379Z,24.70
2019-03-21T17:50:34.076Z,31.47
2019-03-21T17:53:03.879Z,29.03
2019-03-21T17:55:33.983Z,28.67
2019-03-21T17:58:04.125Z,39.90
2019-03-21T18:00:33.952Z,31.37
2019-03-21T18:03:03.451Z,31.10
2019-03-21T18:05:33.147Z,40.63
2019-03-21T18:08:02.656Z,35.00
2019-03-21T18:10:32.907Z,33.37
2019-03-21T18:13:04.044Z,47.20
2019-03-21T18:15:33.746Z,31.00
2019-03-21T18:18:03.344Z,37.67
2019-03-21T18:20:33.650Z,48.33
2019-03-21T18:23:03.684Z,42.43
2019-03-21T18:25:33.110Z,50.93
2019-03-21T18:28:02.535Z,45.33
2019-03-21T18:30:32.098Z,51.70
2019-03-21T18:33:01.466Z,52.93
2019-03-21T18:35:31.112Z,45.43
2019-03-21T18:38:00.520Z,44.50
2019-03-21T18:40:29.936Z,53.83
2019-03-21T18:42:59.418Z,49.47
2019-03-21T18:45:28.916Z,55.80
2019-03-21T18:47:59.068Z,47.03
2019-03-21T18:50:28.765Z,53.10
2019-03-21T18:52:58.729Z,44.20
2019-03-21T18:55:28.500Z,56.67
2019-03-21T18:57:58.180Z,42.97
2019-03-21T19:00:27.865Z,44.07
2019-03-21T19:02:57.294Z,54.60
2019-03-21T19:05:26.982Z,56.40
2019-03-21T19:07:56.549Z,47.63
2019-03-21T19:10:26.014Z,46.67
2019-03-21T19:12:56.761Z,59.03
2019-03-21T19:15:26.340Z,40.73
2019-03-21T19:17:55.963Z,46.00
2019-03-21T19:20:25.686Z,50.07
2019-03-21T19:22:55.229Z,53.10
2019-03-21T19:25:24.905Z,54.57
2019-03-21T19:27:54.512Z,55.93
2019-03-21T19:30:24.016Z,44.00
2019-03-21T19:32:53.722Z,51.50
2019-03-21T19:35:23.275Z,50.10
2019-03-21T19:37:52.974Z,59.33
2019-03-21T19:40:23.555Z,44.83
2019-03-21T19:42:53.004Z,55.03
2019-03-21T19:45:22.492Z,48.17
2019-03-21T19:47:52.358Z,52.40
2019-03-21T19:50:21.993Z,63.00
2019-03-21T19:52:51.404Z,47.57
2019-03-21T19:55:30.138Z,55.27
2019-03-21T19:57:52.267Z,72.43
2019-03-21T20:00:21.814Z,45.90
2019-03-21T20:02:51.669Z,46.30
2019-03-21T20:05:21.162Z,54.37
2019-03-21T20:07:50.884Z,53.87
2019-03-21T20:10:22.137Z,51.33
2019-03-21T20:12:51.955Z,52.37
2019-03-21T20:15:21.648Z,55.30
2019-03-21T20:17:51.252Z,53.77
2019-03-21T20:20:20.619Z,51.47
2019-03-21T20:22:50.267Z,49.40
2019-03-21T20:25:19.987Z,48.00
2019-03-21T20:27:49.489Z,75.57
2019-03-21T20:30:19.914Z,54.93
2019-03-21T20:32:49.460Z,68.67
2019-03-21T20:35:19.043Z,56.27
2019-03-21T20:37:48.937Z,59.83
2019-03-21T20:40:19.389Z,54.70
2019-03-21T20:42:48.956Z,49.47
2019-03-21T20:45:19.079Z,52.83
2019-03-21T20:47:48.671Z,56.73
2019-03-21T20:50:19.371Z,51.93
2019-03-21T20:52:49.135Z,54.57
2019-03-21T20:55:18.644Z,46.93
2019-03-21T20:57:48.101Z,39.53
2019-03-21T21:00:19.147Z,45.37
2019-03-21T21:02:48.747Z,51.67
2019-03-21T21:05:18.414Z,37.90
2019-03-21T21:07:47.948Z,46.57
2019-03-21T21:10:17.507Z,46.53
2019-03-21T21:12:46.940Z,54.03
2019-03-21T21:15:16.851Z,44.23
2019-03-21T21:17:46.390Z,49.47
2019-03-21T21:20:16.258Z,46.47
2019-03-21T21:22:45.911Z,73.93
2019-03-21T21:25:15.896Z,47.40
2019-03-21T21:27:49.923Z,52.20
2019-03-21T21:30:17.687Z,42.03
2019-03-21T21:32:47.530Z,49.13
2019-03-21T21:35:35.824Z,61.40
2019-03-21T21:38:05.389Z,49.87
2019-03-21T21:40:35.455Z,44.90
2019-03-21T21:43:05.028Z,37.53
2019-03-21T21:45:34.427Z,44.60
2019-03-21T21:48:04.290Z,35.67
2019-03-21T21:50:33.013Z,38.03
2019-03-21T21:53:02.404Z,37.43
2019-03-21T21:55:31.797Z,41.33
2019-03-21T21:58:01.250Z,49.60
2019-03-21T22:00:30.820Z,40.10
2019-03-21T22:03:00.255Z,45.00
2019-03-21T22:05:29.743Z,50.47
2019-03-21T22:07:59.120Z,57.10
2019-03-21T22:10:29.574Z,65.27
2019-03-21T22:12:59.294Z,53.60
2019-03-21T22:15:28.648Z,45.73
2019-03-21T22:17:58.057Z,44.67
2019-03-21T22:20:27.391Z,59.13
2019-03-21T22:22:58.250Z,58.50
2019-03-21T22:25:27.798Z,52.53
2019-03-21T22:27:57.136Z,43.43
2019-03-21T22:30:26.701Z,51.33
2019-03-21T22:32:56.179Z,47.97
2019-03-21T22:35:25.645Z,55.30
2019-03-21T22:37:55.016Z,48.03
2019-03-21T22:40:24.833Z,48.03
2019-03-21T22:42:54.195Z,34.70
2019-03-21T22:45:23.819Z,39.03
2019-03-21T22:47:53.508Z,41.63
2019-03-21T22:50:22.851Z,33.97
2019-03-21T22:52:52.233Z,32.67
2019-03-21T22:55:21.904Z,47.43
2019-03-21T22:57:51.307Z,41.37
2019-03-21T23:00:24.568Z,50.43
2019-03-21T23:02:54.013Z,44.50
2019-03-21T23:05:23.433Z,49.43
2019-03-21T23:07:52.782Z,39.37
2019-03-21T23:10:22.242Z,65.90
2019-03-21T23:12:51.696Z,40.90
2019-03-21T23:15:21.211Z,37.77
2019-03-21T23:17:50.785Z,38.67
2019-03-21T23:20:20.349Z,44.10
2019-03-21T23:22:49.963Z,39.53
2019-03-21T23:25:19.311Z,35.43
2019-03-21T23:27:48.873Z,44.93
2019-03-21T23:30:18.425Z,51.03
2019-03-21T23:32:47.848Z,38.93
2019-03-21T23:35:17.368Z,45.17
2019-03-21T23:37:46.705Z,50.63
2019-03-21T23:40:16.192Z,46.70
2019-03-21T23:42:45.637Z,39.00
2019-03-21T23:45:15.560Z,42.50
2019-03-21T23:47:45.082Z,41.40
2019-03-21T23:50:15.210Z,45.70
2019-03-21T23:52:44.717Z,31.67
2019-03-21T23:55:14.930Z,44.50
2019-03-21T23:57:44.417Z,28.50
